Time;durP1;ratioP1;P1;durP2;ratioP2;P2;SDS_P1;SDS_P2;PMS_P1;PMS_P2;Temp;Humidity;BMP_temperature;BMP_pressure;BME280_temperature;BME280_humidity;BME280_pressure;Samples;Min_cycle;Max_cycle;Signal;HPM_P1;HPM_P2
2021/04/16 00:07:52;;;;;;;13.80;6.40;;;;;;;4.88;100.00;100719.59;714650;1199;113412;-70
2021/04/16 00:22:54;;;;;;;13.65;6.58;;;;;;;4.87;100.00;100705.77;714440;1203;114131;-70
2021/04/16 00:37:56;;;;;;;14.10;6.15;;;;;;;4.87;100.00;100690.16;714196;1202;115391;-71
2021/04/16 00:53:00;;;;;;;11.88;5.75;;;;;;;4.91;100.00;100690.80;714425;1200;115244;-69
2021/04/16 01:08:03;;;;;;;12.28;5.58;;;;;;;4.92;100.00;100675.14;717661;1165;115311;-70
2021/04/16 01:23:48;;;;;;;15.35;6.50;;;;;;;4.93;100.00;100665.56;715489;1167;113673;-79
2021/04/16 01:38:50;;;;;;;10.60;6.13;;;;;;;4.89;100.00;100661.47;713522;1190;113907;-80
2021/04/16 01:54:16;;;;;;;13.40;5.43;;;;;;;4.85;100.00;100663.41;714123;1176;113708;-81
2021/04/16 02:09:21;;;;;;;12.33;6.48;;;;;;;4.88;100.00;100654.59;714845;1200;113803;-80
2021/04/16 02:24:24;;;;;;;14.68;6.53;;;;;;;4.90;100.00;100650.16;714743;1200;115147;-80
2021/04/16 02:39:27;;;;;;;14.67;6.80;;;;;;;4.88;100.00;100637.22;715186;1199;114417;-81
2021/04/16 02:54:28;;;;;;;19.33;8.63;;;;;;;4.88;100.00;100633.80;714306;1199;113957;-79
2021/04/16 03:09:30;;;;;;;15.43;7.75;;;;;;;4.86;100.00;100627.84;714856;1199;114932;-81
2021/04/16 03:24:32;;;;;;;11.08;5.48;;;;;;;4.81;100.00;100634.14;714528;1199;115210;-80
2021/04/16 03:39:34;;;;;;;15.15;7.48;;;;;;;4.81;100.00;100626.34;714274;1200;113793;-81
2021/04/16 03:54:35;;;;;;;15.00;4.88;;;;;;;4.75;100.00;100634.52;714498;1203;113898;-81
2021/04/16 04:09:38;;;;;;;10.80;6.70;;;;;;;4.74;100.00;100638.04;714590;1200;114232;-81
2021/04/16 04:24:39;;;;;;;13.60;7.10;;;;;;;4.68;100.00;100635.78;714197;1200;113813;-79
2021/04/16 04:39:43;;;;;;;15.98;7.20;;;;;;;4.66;100.00;100638.48;714214;1200;114229;-79
2021/04/16 04:54:50;;;;;;;14.40;8.05;;;;;;;4.58;100.00;100637.23;713788;1200;115265;-81
2021/04/16 05:09:52;;;;;;;19.77;8.20;;;;;;;4.48;100.00;100637.77;714651;1203;113753;-80
2021/04/16 05:24:54;;;;;;;51.93;25.75;;;;;;;4.33;100.00;100646.45;714330;1181;113862;-80
2021/04/16 05:39:56;;;;;;;176.68;55.63;;;;;;;4.37;100.00;100654.88;714227;1176;114218;-79
2021/04/16 05:54:57;;;;;;;126.40;48.95;;;;;;;4.37;100.00;100644.48;714470;1203;115762;-80
2021/04/16 06:09:59;;;;;;;59.03;21.85;;;;;;;4.37;100.00;100637.55;714844;1200;114751;-80
2021/04/16 06:25:01;;;;;;;43.33;17.77;;;;;;;4.45;100.00;100637.95;714837;1175;115187;-81
2021/04/16 06:40:05;;;;;;;26.20;13.23;;;;;;;4.53;100.00;100637.52;714641;1199;115003;-75
2021/04/16 06:55:12;;;;;;;23.87;10.97;;;;;;;4.75;100.00;100626.72;714330;1177;113988;-84
2021/04/16 07:10:25;;;;;;;27.48;11.28;;;;;;;5.15;100.00;100641.73;714530;1199;114041;-77
2021/04/16 07:25:34;;;;;;;14.90;8.63;;;;;;;5.55;100.00;100639.31;714504;1200;115510;-81
2021/04/16 07:40:41;;;;;;;14.20;6.30;;;;;;;5.99;100.00;100624.48;714836;1200;113721;-80
2021/04/16 07:55:43;;;;;;;16.80;8.90;;;;;;;6.16;100.00;100624.26;714781;1188;114251;-79
2021/04/16 08:10:47;;;;;;;16.55;9.73;;;;;;;6.48;100.00;100621.33;714398;1199;114026;-79
2021/04/16 08:35:05;;;;;;;11.35;6.43;;;;;;;8.28;100.00;100625.50;715772;1165;49135;-83
2021/04/16 08:50:34;;;;;;;19.83;13.50;;;;;;;8.86;100.00;100626.56;716250;1200;114968;-88
2021/04/16 09:06:01;;;;;;;17.20;9.00;;;;;;;8.83;100.00;100612.75;716258;1199;114956;-87
2021/04/16 09:21:29;;;;;;;20.98;10.13;;;;;;;8.58;100.00;100615.56;716050;1199;114400;-89
2021/04/16 09:37:12;;;;;;;12.73;7.50;;;;;;;8.68;100.00;100613.90;716538;1200;113792;-87
2021/04/16 09:52:32;;;;;;;18.90;7.15;;;;;;;8.82;100.00;100612.88;716183;1199;114557;-81
2021/04/16 10:07:57;;;;;;;81.63;42.93;;;;;;;8.90;100.00;100591.38;716813;1199;114634;-79
2021/04/16 10:23:24;;;;;;;14.30;10.13;;;;;;;8.64;100.00;100596.77;715220;1199;114754;-79
2021/04/16 12:44:33;;;;;;;;;;;;;;;8.88;100.00;100557.48;715778;1174;115386;-88
2021/04/16 12:59:54;;;;;;;32.63;16.13;;;;;;;7.66;100.00;100569.01;716571;1199;99823;-88
2021/04/16 13:15:15;;;;;;;27.40;11.48;;;;;;;6.79;100.00;100577.56;715856;1175;114202;-85
2021/04/16 13:30:35;;;;;;;28.15;12.90;;;;;;;6.31;100.00;100580.73;715888;1200;114537;-85
2021/04/16 13:45:58;;;;;;;38.68;16.48;;;;;;;6.08;100.00;100584.00;715696;1199;114191;-83
2021/04/16 14:01:19;;;;;;;30.95;15.15;;;;;;;5.82;100.00;100584.70;715725;1203;114268;-86
2021/04/16 14:16:42;;;;;;;27.73;11.88;;;;;;;5.67;100.00;100583.05;716349;1199;112842;-85
2021/04/16 14:32:03;;;;;;;25.50;10.80;;;;;;;5.65;100.00;100582.34;715587;1203;113942;-85
2021/04/16 14:47:24;;;;;;;116.13;41.70;;;;;;;5.58;100.00;100586.23;715980;1199;113825;-84
2021/04/16 15:02:45;;;;;;;61.03;29.87;;;;;;;5.47;100.00;100598.14;715132;1199;113977;-85
2021/04/16 15:18:10;;;;;;;66.83;29.15;;;;;;;5.34;100.00;100607.63;714857;1199;114581;-81
2021/04/16 15:49:01;;;;;;;66.50;25.43;;;;;;;5.14;100.00;100609.67;714764;1199;113979;-83
2021/04/16 16:04:21;;;;;;;55.03;19.67;;;;;;;5.11;100.00;100617.67;714567;1198;114724;-84
2021/04/16 16:19:44;;;;;;;45.90;16.40;;;;;;;5.02;100.00;100622.59;714475;1199;114786;-90
2021/04/16 16:35:10;;;;;;;52.13;24.43;;;;;;;4.99;100.00;100634.02;714498;1203;115551;-83
2021/04/16 16:50:38;;;;;;;30.15;14.23;;;;;;;4.89;100.00;100619.88;714655;1177;113822;-83
2021/04/16 17:05:59;;;;;;;99.97;28.23;;;;;;;4.87;100.00;100629.52;714618;1175;114058;-85
2021/04/16 17:21:22;;;;;;;73.33;23.80;;;;;;;4.80;100.00;100637.69;714816;1199;115192;-84
2021/04/16 17:36:43;;;;;;;45.15;14.70;;;;;;;4.76;100.00;100649.17;717234;1199;114394;-83
2021/04/16 17:52:04;;;;;;;50.05;19.40;;;;;;;4.81;100.00;100686.14;714472;1199;114207;-80
2021/04/16 18:07:35;;;;;;;43.33;16.00;;;;;;;4.79;100.00;100685.41;716517;1202;113851;-78
2021/04/16 18:23:01;;;;;;;40.58;17.18;;;;;;;4.85;100.00;100696.38;716595;1200;115841;-77
2021/04/16 18:38:35;;;;;;;52.60;18.85;;;;;;;4.92;100.00;100695.94;716404;1199;114054;-77
2021/04/16 18:54:09;;;;;;;43.33;19.60;;;;;;;4.91;100.00;100704.66;717665;1203;113950;-78
2021/04/16 19:09:31;;;;;;;32.67;13.40;;;;;;;4.91;100.00;100703.80;715258;1200;115670;-78
2021/04/16 19:24:56;;;;;;;28.68;11.08;;;;;;;4.87;100.00;100704.91;715708;1174;113210;-83
2021/04/16 19:40:40;;;;;;;38.13;13.40;;;;;;;4.90;100.00;100717.75;715896;1203;115212;-79
2021/04/16 20:27:23;;;;;;;30.77;14.20;;;;;;;4.94;100.00;100698.45;716443;1200;114202;-80
2021/04/16 20:42:49;;;;;;;38.90;13.53;;;;;;;5.04;100.00;100704.80;718359;1200;114275;-82
2021/04/16 20:58:10;;;;;;;20.50;10.10;;;;;;;4.87;100.00;100715.31;717856;1200;116171;-81
2021/04/16 21:13:32;;;;;;;221.08;53.53;;;;;;;4.82;100.00;100713.81;717853;1175;113420;-80
2021/04/16 21:28:57;;;;;;;65.87;20.93;;;;;;;5.00;100.00;100716.27;718023;1200;115178;-80
2021/04/16 21:44:18;;;;;;;26.68;11.88;;;;;;;4.78;100.00;100709.72;718424;1180;113516;-81
2021/04/16 21:59:40;;;;;;;19.93;9.55;;;;;;;4.68;100.00;100731.95;717740;1200;114822;-81
2021/04/16 22:15:31;;;;;;;16.80;6.78;;;;;;;4.71;100.00;100708.41;718269;1184;117882;-80
2021/04/16 22:30:55;;;;;;;18.95;7.98;;;;;;;4.70;100.00;100701.52;718278;1200;115068;-80
2021/04/16 22:46:19;;;;;;;20.95;8.10;;;;;;;4.62;100.00;100716.72;722164;1178;114171;-80
2021/04/16 23:01:44;;;;;;;23.37;9.40;;;;;;;4.64;100.00;100707.89;718485;1202;114216;-81
2021/04/16 23:17:06;;;;;;;12.75;5.60;;;;;;;4.70;100.00;100700.67;717040;1200;115140;-80
2021/04/16 23:32:33;;;;;;;13.87;6.53;;;;;;;4.77;100.00;100681.22;716195;1176;114410;-81
2021/04/16 23:47:54;;;;;;;12.80;5.58;;;;;;;4.78;100.00;100685.50;717877;1177;113907;-80
